Terminal Aerodrome Forecast
Issued by NWS Mt. Holly, NJ

Home | Current Version | Previous Version | Text Only | Print | Product List | Glossary On
Versions: 1 2 3 4 5 6 7 8 9 10 11 12 13 14 15 16 17 18 19 20 21 22 23 24
000
FTUS41 KPHI 290500 RRA
TAFRDG
TAF
KRDG 290546Z 2906/3006 VRB03KT P6SM SKC
     FM291600 15004KT P6SM BKN100
     FM292200 16004KT 3SM -SN OVC040
     FM292300 17005KT 1 1/2SM -SN SCT009 OVC020
     FM300400 19004KT 5SM -SHSN SCT020 OVC035=

USA.gov is the U.S. government's official web portal to all federal, state and local government web resources and services.